Time;durP1;ratioP1;P1;durP2;ratioP2;P2;SDS_P1;SDS_P2;PMS_P1;PMS_P2;Temp;Humidity;BMP_temperature;BMP_pressure;BME280_temperature;BME280_humidity;BME280_pressure;Samples;Min_cycle;Max_cycle;Signal;HPM_P1;HPM_P2
2022/03/31 00:01:03;;;;;;;17.83;10.60;;;1.90;99.90;;;;;;5113273;27;20215;-73
2022/03/31 00:03:52;;;;;;;18.03;11.33;;;2.00;99.90;;;;;;5103706;27;20242;-72
2022/03/31 00:06:42;;;;;;;16.40;10.27;;;2.00;99.90;;;;;;5117795;27;20222;-76
2022/03/31 00:10:13;;;;;;;18.57;10.47;;;2.00;99.90;;;;;;5114068;27;20229;-70
2022/03/31 00:13:03;;;;;;;18.13;10.43;;;1.90;99.90;;;;;;5118025;27;20233;-71
2022/03/31 00:15:54;;;;;;;20.60;11.67;;;1.90;99.90;;;;;;5112524;27;20756;-72
2022/03/31 00:18:43;;;;;;;17.63;10.27;;;2.10;99.90;;;;;;5099532;27;20309;-72
2022/03/31 00:21:31;;;;;;;16.10;10.17;;;2.10;99.90;;;;;;5102946;27;20222;-72
2022/03/31 00:24:21;;;;;;;16.90;11.23;;;2.10;99.90;;;;;;5112145;27;21487;-72
2022/03/31 00:27:11;;;;;;;19.63;10.37;;;2.00;99.90;;;;;;5114647;27;20241;-73
2022/03/31 00:30:00;;;;;;;17.77;10.60;;;2.10;99.90;;;;;;5098097;27;20222;-72
2022/03/31 00:32:49;;;;;;;15.80;9.60;;;2.20;99.90;;;;;;5114592;27;20392;-70
2022/03/31 00:35:37;;;;;;;17.73;10.63;;;2.10;99.90;;;;;;5114425;27;20658;-71
2022/03/31 00:38:26;;;;;;;16.40;9.07;;;1.90;99.90;;;;;;5109183;27;21268;-72
2022/03/31 00:41:16;;;;;;;15.97;9.37;;;2.00;99.90;;;;;;5095410;27;20224;-72
2022/03/31 00:44:05;;;;;;;16.83;9.93;;;2.00;99.90;;;;;;5114320;27;20310;-72
2022/03/31 00:46:55;;;;;;;16.23;9.43;;;1.90;99.90;;;;;;5115002;27;20529;-72
2022/03/31 00:49:45;;;;;;;15.23;9.97;;;1.90;99.90;;;;;;5102306;27;20432;-72
2022/03/31 00:52:33;;;;;;;14.10;8.30;;;2.00;99.90;;;;;;5099833;27;20219;-71
2022/03/31 00:55:24;;;;;;;18.87;10.47;;;2.00;99.90;;;;;;5113624;27;20210;-73
2022/03/31 00:58:16;;;;;;;14.63;9.20;;;1.90;99.90;;;;;;5100115;27;20218;-73
2022/03/31 01:01:04;;;;;;;17.97;10.47;;;1.90;99.90;;;;;;5116257;27;20217;-72
2022/03/31 01:03:54;;;;;;;16.47;9.50;;;1.90;99.90;;;;;;5119060;27;20314;-71
2022/03/31 01:06:43;;;;;;;12.63;8.83;;;2.10;99.90;;;;;;5113242;27;20396;-70
2022/03/31 01:09:32;;;;;;;15.90;9.47;;;2.00;99.90;;;;;;5112871;27;20250;-74
2022/03/31 01:12:22;;;;;;;16.53;9.50;;;2.00;99.90;;;;;;5097774;27;21490;-69
2022/03/31 01:15:17;;;;;;;15.07;9.37;;;1.90;99.90;;;;;;5109055;27;20223;-71
2022/03/31 01:18:06;;;;;;;14.63;8.67;;;2.00;99.90;;;;;;5112498;27;20222;-71
2022/03/31 01:20:56;;;;;;;11.97;7.90;;;2.00;99.90;;;;;;5112175;27;20648;-70
2022/03/31 01:23:46;;;;;;;13.37;9.13;;;1.80;99.90;;;;;;5113833;27;20226;-71
2022/03/31 01:26:36;;;;;;;12.80;7.60;;;1.90;99.90;;;;;;5114816;27;20225;-71
2022/03/31 01:29:27;;;;;;;14.70;8.03;;;1.90;99.90;;;;;;5113178;27;20220;-71
2022/03/31 01:32:15;;;;;;;12.93;8.17;;;1.70;99.90;;;;;;5115042;27;20218;-71
2022/03/31 01:35:06;;;;;;;13.07;8.30;;;1.80;99.90;;;;;;5112987;27;20247;-73
2022/03/31 01:37:54;;;;;;;14.20;8.50;;;1.80;99.90;;;;;;5113720;27;20224;-72
2022/03/31 01:40:44;;;;;;;13.63;7.50;;;1.80;99.90;;;;;;5114202;27;20245;-72
2022/03/31 01:43:33;;;;;;;16.00;8.03;;;1.90;99.90;;;;;;5113668;27;20588;-72
2022/03/31 01:46:21;;;;;;;11.27;7.47;;;1.80;99.90;;;;;;5113062;27;20236;-73
2022/03/31 01:49:10;;;;;;;12.77;8.20;;;1.70;99.90;;;;;;5109497;27;20581;-71
2022/03/31 01:52:00;;;;;;;11.10;6.60;;;1.70;99.90;;;;;;5112896;27;20743;-71
2022/03/31 01:54:48;;;;;;;12.50;7.70;;;1.60;99.90;;;;;;5100881;27;20237;-72
2022/03/31 01:57:39;;;;;;;13.03;7.50;;;1.70;99.90;;;;;;5113348;27;20237;-72
2022/03/31 02:00:28;;;;;;;11.60;7.33;;;1.60;99.90;;;;;;5110229;27;20301;-72
2022/03/31 02:03:17;;;;;;;9.97;7.20;;;1.70;99.90;;;;;;5113675;27;20235;-71
2022/03/31 02:06:06;;;;;;;11.37;6.97;;;1.70;99.90;;;;;;5084900;27;20219;-72
2022/03/31 02:08:56;;;;;;;8.57;5.80;;;1.60;99.90;;;;;;5079656;28;20258;-72
2022/03/31 02:11:45;;;;;;;11.93;7.00;;;1.60;99.90;;;;;;5074822;28;20323;-72
2022/03/31 02:14:37;;;;;;;9.00;4.70;;;1.60;99.90;;;;;;5075066;28;20219;-72
2022/03/31 02:17:26;;;;;;;13.03;6.50;;;1.60;99.90;;;;;;5078711;28;20227;-71
2022/03/31 02:20:15;;;;;;;11.70;5.93;;;1.70;99.90;;;;;;5078874;28;20294;-72
2022/03/31 02:23:04;;;;;;;12.73;6.73;;;1.60;99.90;;;;;;5097967;27;20226;-73
2022/03/31 02:25:52;;;;;;;9.13;5.50;;;1.60;99.90;;;;;;5088265;28;20227;-78
2022/03/31 02:28:41;;;;;;;8.67;5.97;;;1.50;99.90;;;;;;5094509;27;20230;-78
2022/03/31 02:31:36;;;;;;;10.10;5.30;;;1.70;99.90;;;;;;5091511;28;20226;-79
2022/03/31 02:34:24;;;;;;;13.30;5.37;;;1.70;99.90;;;;;;5096115;27;20371;-81
2022/03/31 02:37:13;;;;;;;12.30;5.63;;;1.50;99.90;;;;;;5085965;28;20222;-81
2022/03/31 02:40:02;;;;;;;10.63;5.47;;;1.50;99.90;;;;;;5081421;28;20238;-84
2022/03/31 02:42:51;;;;;;;6.93;4.07;;;1.60;99.90;;;;;;5085027;28;20234;-85
2022/03/31 02:45:39;;;;;;;7.73;4.80;;;1.40;99.90;;;;;;5087561;28;20215;-83
2022/03/31 02:48:29;;;;;;;9.73;5.33;;;1.50;99.90;;;;;;5096332;28;20218;-83
2022/03/31 02:51:18;;;;;;;10.63;5.63;;;1.40;99.90;;;;;;5098958;28;20211;-84
2022/03/31 02:57:13;;;;;;;8.20;4.80;;;1.50;99.90;;;;;;5076727;28;21003;-75
2022/03/31 03:00:02;;;;;;;10.17;5.57;;;1.50;99.90;;;;;;5092064;28;20242;-75
2022/03/31 03:02:50;;;;;;;7.60;4.80;;;1.40;99.90;;;;;;5093613;28;20300;-75
2022/03/31 03:05:41;;;;;;;8.77;4.80;;;1.30;99.90;;;;;;5089206;28;20245;-76
2022/03/31 03:08:31;;;;;;;8.80;5.67;;;1.30;99.90;;;;;;5080299;28;20218;-76
2022/03/31 03:11:23;;;;;;;10.50;5.27;;;1.30;99.90;;;;;;5085353;28;20211;-75
2022/03/31 03:14:13;;;;;;;10.00;5.60;;;1.30;99.90;;;;;;5090476;28;20268;-76
2022/03/31 03:17:02;;;;;;;9.90;5.57;;;1.30;99.90;;;;;;5094278;28;20297;-77
2022/03/31 03:19:51;;;;;;;13.60;6.27;;;1.20;99.90;;;;;;5091376;28;20253;-75
2022/03/31 03:22:44;;;;;;;9.80;5.50;;;1.30;99.90;;;;;;5086461;28;21051;-74
2022/03/31 03:25:33;;;;;;;8.37;5.90;;;1.40;99.90;;;;;;5092120;27;20634;-74
2022/03/31 03:28:21;;;;;;;14.10;6.17;;;1.50;99.90;;;;;;5081407;28;20215;-74
2022/03/31 03:31:11;;;;;;;7.07;5.23;;;1.60;99.90;;;;;;5091816;28;20226;-73
2022/03/31 03:34:04;;;;;;;10.00;5.13;;;1.30;99.90;;;;;;5078286;28;20252;-73
2022/03/31 03:36:53;;;;;;;11.47;5.87;;;1.30;99.90;;;;;;5092317;28;20230;-73
2022/03/31 03:39:44;;;;;;;10.20;6.93;;;1.50;99.90;;;;;;5079131;28;20238;-74
2022/03/31 03:42:33;;;;;;;11.10;5.37;;;1.50;99.90;;;;;;5096332;28;20343;-74
2022/03/31 03:45:22;;;;;;;9.53;6.37;;;1.30;99.90;;;;;;5095476;27;20288;-76
2022/03/31 03:48:11;;;;;;;11.20;7.80;;;1.30;99.90;;;;;;5096169;28;20406;-75
2022/03/31 03:51:00;;;;;;;10.80;7.07;;;1.30;99.90;;;;;;5099430;27;20791;-74
2022/03/31 03:53:49;;;;;;;11.93;6.87;;;1.40;99.90;;;;;;5087311;28;20229;-74
2022/03/31 03:56:39;;;;;;;9.30;6.43;;;1.30;99.90;;;;;;5096557;27;20300;-76
2022/03/31 03:59:31;;;;;;;10.03;6.17;;;1.30;99.90;;;;;;5084228;28;20223;-76
2022/03/31 04:02:20;;;;;;;9.67;6.47;;;1.40;99.90;;;;;;5089605;27;20226;-79
2022/03/31 04:05:10;;;;;;;9.87;6.47;;;1.50;99.90;;;;;;5096744;27;20218;-77
2022/03/31 04:07:58;;;;;;;10.93;6.50;;;1.40;99.90;;;;;;5101992;27;20232;-77
2022/03/31 04:10:47;;;;;;;11.57;6.70;;;1.40;99.90;;;;;;5093818;27;20238;-78
2022/03/31 04:13:38;;;;;;;10.10;6.53;;;1.40;99.90;;;;;;5094297;28;20238;-79
2022/03/31 04:16:26;;;;;;;11.30;7.07;;;1.30;99.90;;;;;;5096198;27;20218;-79
2022/03/31 04:19:15;;;;;;;11.10;6.57;;;1.40;99.90;;;;;;5096863;27;20240;-81
2022/03/31 04:22:05;;;;;;;9.60;6.13;;;1.50;99.90;;;;;;5096870;27;20355;-81
2022/03/31 04:24:54;;;;;;;11.33;6.20;;;1.40;99.90;;;;;;5098125;27;20219;-78
2022/03/31 04:27:42;;;;;;;10.27;6.37;;;1.50;99.90;;;;;;5099654;28;20236;-78
2022/03/31 04:30:33;;;;;;;11.97;6.63;;;1.40;99.90;;;;;;5094036;28;20802;-77
2022/03/31 04:33:21;;;;;;;14.47;7.67;;;1.50;99.90;;;;;;5099951;27;20221;-74
2022/03/31 04:36:10;;;;;;;12.73;7.50;;;1.60;99.90;;;;;;5092847;28;20294;-76
2022/03/31 04:38:59;;;;;;;10.37;7.33;;;1.40;99.90;;;;;;5100728;28;20306;-78
2022/03/31 04:41:48;;;;;;;10.63;6.80;;;1.30;99.90;;;;;;5087478;28;20211;-76
2022/03/31 04:44:37;;;;;;;9.53;6.30;;;1.40;99.90;;;;;;5088281;28;20222;-76
2022/03/31 04:47:28;;;;;;;13.00;6.40;;;1.40;99.90;;;;;;5096784;28;20237;-76
2022/03/31 04:50:17;;;;;;;10.97;6.33;;;1.20;99.90;;;;;;5083977;27;20718;-75
2022/03/31 04:53:06;;;;;;;14.03;7.53;;;1.30;99.90;;;;;;5103038;27;20221;-75
2022/03/31 04:55:55;;;;;;;10.53;6.60;;;1.40;99.90;;;;;;5100371;27;20245;-74
2022/03/31 04:58:45;;;;;;;12.43;7.07;;;1.50;99.90;;;;;;5102033;27;20727;-77
2022/03/31 05:01:34;;;;;;;15.03;6.73;;;1.50;99.90;;;;;;5094728;28;20231;-79
2022/03/31 05:04:24;;;;;;;12.63;7.13;;;1.60;99.90;;;;;;5104240;27;20300;-80
2022/03/31 05:07:13;;;;;;;9.87;6.73;;;1.60;99.90;;;;;;5115706;27;20230;-78
2022/03/31 05:10:02;;;;;;;12.47;5.47;;;1.60;99.90;;;;;;5119707;27;20210;-75
2022/03/31 05:12:50;;;;;;;9.90;5.43;;;1.40;99.90;;;;;;5108268;27;20331;-79
2022/03/31 05:15:39;;;;;;;11.83;5.87;;;1.30;99.90;;;;;;5107351;27;20224;-73
2022/03/31 05:18:28;;;;;;;11.73;6.90;;;1.40;99.90;;;;;;5121145;27;20252;-75
2022/03/31 05:21:18;;;;;;;12.77;6.00;;;1.50;99.90;;;;;;5105947;27;20226;-79
2022/03/31 05:24:07;;;;;;;12.70;6.50;;;1.50;99.90;;;;;;5116835;27;20230;-71
2022/03/31 05:26:59;;;;;;;14.70;7.10;;;1.50;99.90;;;;;;5121725;27;20230;-73
2022/03/31 05:29:48;;;;;;;12.17;6.03;;;1.40;99.90;;;;;;5105552;27;20233;-77
2022/03/31 05:32:37;;;;;;;11.63;6.90;;;1.30;99.90;;;;;;5119684;27;21452;-81
2022/03/31 05:35:27;;;;;;;11.20;6.27;;;1.50;99.90;;;;;;5119289;27;20231;-80
2022/03/31 05:38:17;;;;;;;12.20;5.70;;;1.50;99.90;;;;;;5117709;27;20214;-77
2022/03/31 05:41:06;;;;;;;10.90;7.30;;;1.50;99.90;;;;;;5114277;27;20367;-74
2022/03/31 05:43:55;;;;;;;11.20;6.03;;;1.60;99.90;;;;;;5114451;27;20792;-72
2022/03/31 05:46:44;;;;;;;9.67;5.63;;;1.70;99.90;;;;;;5112691;27;20604;-73
2022/03/31 05:49:33;;;;;;;14.03;7.50;;;1.70;99.90;;;;;;5116376;27;20227;-77
2022/03/31 05:52:22;;;;;;;14.03;7.17;;;1.60;99.90;;;;;;5117974;27;20222;-70
2022/03/31 05:55:14;;;;;;;12.57;6.93;;;1.80;99.90;;;;;;5115091;27;20302;-67
2022/03/31 05:58:03;;;;;;;15.70;7.07;;;1.90;99.90;;;;;;5113796;27;20912;-73
2022/03/31 06:00:53;;;;;;;10.20;6.80;;;1.70;99.90;;;;;;5121222;27;20296;-74
2022/03/31 06:03:42;;;;;;;14.93;7.57;;;1.60;99.90;;;;;;5118345;27;20310;-72
2022/03/31 06:06:31;;;;;;;13.00;6.80;;;1.70;99.90;;;;;;5100154;27;20222;-70
2022/03/31 06:09:20;;;;;;;13.10;7.30;;;1.90;99.90;;;;;;5101583;27;20238;-71
2022/03/31 06:12:11;;;;;;;10.17;7.30;;;1.90;99.90;;;;;;5109480;27;20693;-71
2022/03/31 06:15:00;;;;;;;12.77;7.10;;;1.90;99.90;;;;;;5114866;27;20219;-69
2022/03/31 06:17:49;;;;;;;13.87;6.17;;;1.90;99.90;;;;;;5111918;27;20243;-69
2022/03/31 06:20:38;;;;;;;10.00;6.43;;;1.80;99.90;;;;;;5119825;27;20225;-73
2022/03/31 06:23:28;;;;;;;12.10;5.93;;;1.90;99.90;;;;;;5110015;27;20250;-75
2022/03/31 06:26:17;;;;;;;11.40;6.13;;;1.80;99.90;;;;;;5112055;27;20228;-74
2022/03/31 06:29:07;;;;;;;10.33;6.27;;;1.90;99.90;;;;;;5110072;27;20222;-76
2022/03/31 06:31:56;;;;;;;14.33;6.93;;;2.00;99.90;;;;;;5103755;27;20232;-75
2022/03/31 06:34:45;;;;;;;11.97;5.53;;;2.00;99.90;;;;;;5113681;27;20227;-74
2022/03/31 06:37:35;;;;;;;10.23;6.13;;;2.10;99.90;;;;;;5082535;27;20553;-75
2022/03/31 06:40:24;;;;;;;12.77;6.10;;;1.80;99.90;;;;;;5113154;27;20218;-77
2022/03/31 06:43:13;;;;;;;13.00;7.30;;;1.90;99.90;;;;;;5098676;27;20310;-78
2022/03/31 06:46:04;;;;;;;10.47;5.97;;;2.00;99.90;;;;;;5096420;28;20234;-79
2022/03/31 06:48:53;;;;;;;11.80;6.37;;;1.90;99.90;;;;;;5111799;27;20755;-78
2022/03/31 06:51:43;;;;;;;11.87;6.63;;;2.10;99.90;;;;;;5117189;27;20230;-78
2022/03/31 06:54:31;;;;;;;15.17;6.50;;;2.20;99.90;;;;;;5113796;27;20299;-80
2022/03/31 06:57:20;;;;;;;19.17;6.30;;;2.40;99.90;;;;;;5111298;27;20249;-77
2022/03/31 07:00:10;;;;;;;13.23;5.63;;;2.70;99.90;;;;;;5122691;27;20274;-78
2022/03/31 07:03:00;;;;;;;12.97;6.40;;;2.60;99.90;;;;;;5115057;27;20226;-80
2022/03/31 07:05:53;;;;;;;11.63;6.17;;;2.70;99.90;;;;;;5097983;28;20258;-68
2022/03/31 07:08:41;;;;;;;11.20;5.57;;;2.50;99.90;;;;;;5103890;28;20266;-68
2022/03/31 07:11:30;;;;;;;11.70;5.60;;;2.50;99.90;;;;;;5108945;27;20221;-76
2022/03/31 07:14:19;;;;;;;10.63;6.57;;;2.60;99.90;;;;;;5103169;27;20218;-69
2022/03/31 07:17:07;;;;;;;12.03;5.07;;;2.60;99.90;;;;;;5106565;27;20238;-70
2022/03/31 07:19:58;;;;;;;13.73;6.60;;;2.70;99.90;;;;;;5117795;27;20263;-73
2022/03/31 07:22:51;;;;;;;12.70;5.13;;;2.60;99.90;;;;;;5123289;27;20218;-72
2022/03/31 07:25:40;;;;;;;10.73;4.80;;;2.70;99.90;;;;;;5117626;27;20218;-71
2022/03/31 07:28:29;;;;;;;13.20;4.90;;;2.80;99.90;;;;;;5115127;27;20229;-72
2022/03/31 07:31:17;;;;;;;14.07;6.57;;;2.80;99.90;;;;;;5107927;27;20233;-71
2022/03/31 07:34:06;;;;;;;9.83;5.83;;;2.90;99.90;;;;;;5122158;27;20218;-71
2022/03/31 07:36:56;;;;;;;13.17;6.47;;;2.90;99.90;;;;;;5100802;27;20214;-71
2022/03/31 07:39:45;;;;;;;11.87;5.70;;;3.00;99.90;;;;;;5097674;27;20239;-71
2022/03/31 07:42:35;;;;;;;12.97;6.30;;;3.00;99.90;;;;;;5106266;27;20279;-72
2022/03/31 07:45:25;;;;;;;9.50;6.47;;;3.10;99.90;;;;;;5117633;27;20546;-72
2022/03/31 07:48:15;;;;;;;12.30;5.53;;;3.10;99.90;;;;;;5104824;27;20364;-72
2022/03/31 07:51:04;;;;;;;10.80;4.83;;;3.20;99.90;;;;;;5122127;27;20225;-73
2022/03/31 07:53:54;;;;;;;11.23;5.47;;;2.90;99.90;;;;;;5119758;27;20223;-72
2022/03/31 07:56:43;;;;;;;7.00;4.73;;;3.00;99.90;;;;;;5119214;27;20210;-73
2022/03/31 07:59:33;;;;;;;9.20;5.40;;;3.10;99.90;;;;;;5118480;27;20443;-73
2022/03/31 08:02:24;;;;;;;10.47;5.77;;;3.40;99.90;;;;;;5118242;27;20227;-74
2022/03/31 08:05:16;;;;;;;10.17;4.90;;;3.60;99.90;;;;;;5115949;27;20219;-67
2022/03/31 08:08:05;;;;;;;11.30;5.00;;;3.40;99.90;;;;;;5106885;27;20301;-72
2022/03/31 08:10:56;;;;;;;7.73;4.90;;;3.40;99.90;;;;;;5104630;27;20220;-73
2022/03/31 08:13:45;;;;;;;11.77;4.77;;;3.70;99.90;;;;;;5119320;27;20225;-72
2022/03/31 08:16:33;;;;;;;9.20;5.27;;;3.70;99.90;;;;;;5106796;27;20218;-73
2022/03/31 08:19:22;;;;;;;11.13;5.43;;;3.60;99.90;;;;;;5116229;27;20693;-72
2022/03/31 08:22:11;;;;;;;7.73;4.60;;;3.70;99.90;;;;;;5119570;27;20229;-72
2022/03/31 08:24:59;;;;;;;6.90;4.27;;;3.70;99.90;;;;;;5103452;27;20222;-72
2022/03/31 08:27:50;;;;;;;10.73;5.20;;;3.60;99.90;;;;;;5119844;27;20335;-72
2022/03/31 08:30:40;;;;;;;10.27;5.10;;;3.80;99.90;;;;;;5123445;27;20252;-72
2022/03/31 08:33:29;;;;;;;8.60;5.33;;;3.90;99.90;;;;;;5119062;27;20458;-73
2022/03/31 08:36:17;;;;;;;11.40;5.53;;;4.00;99.90;;;;;;5118091;27;20498;-72
2022/03/31 08:39:07;;;;;;;9.13;4.50;;;4.20;99.90;;;;;;5109494;27;20224;-72
2022/03/31 08:41:56;;;;;;;10.47;5.07;;;4.30;99.90;;;;;;5103016;27;20703;-72
2022/03/31 08:44:50;;;;;;;12.43;5.47;;;4.40;99.90;;;;;;5115857;27;20234;-72
2022/03/31 08:47:40;;;;;;;8.00;5.17;;;4.30;99.90;;;;;;5114821;27;20225;-72
2022/03/31 08:50:39;;;;;;;8.53;4.67;;;4.30;99.90;;;;;;5120109;27;20226;-72
2022/03/31 08:53:27;;;;;;;7.07;4.87;;;4.40;99.90;;;;;;5119990;27;20213;-72
2022/03/31 08:56:19;;;;;;;7.20;4.40;;;4.40;99.90;;;;;;5100234;27;20235;-72
2022/03/31 08:59:09;;;;;;;9.80;5.07;;;4.50;99.90;;;;;;5121574;27;20348;-72
2022/03/31 09:01:59;;;;;;;8.33;5.00;;;4.50;99.90;;;;;;5120667;27;20216;-72
2022/03/31 09:04:51;;;;;;;7.43;4.07;;;4.60;99.90;;;;;;5100948;27;20234;-73
2022/03/31 09:07:53;;;;;;;9.93;4.60;;;4.50;99.90;;;;;;5113235;27;20230;-73
2022/03/31 09:10:44;;;;;;;6.33;4.57;;;4.60;99.90;;;;;;5105759;27;20213;-71
2022/03/31 09:13:36;;;;;;;9.27;4.93;;;4.70;99.90;;;;;;5115628;27;20236;-73
2022/03/31 09:16:33;;;;;;;6.97;3.90;;;4.70;99.90;;;;;;5114448;27;20218;-71
2022/03/31 09:19:24;;;;;;;6.83;4.00;;;4.70;99.90;;;;;;5113614;27;20693;-72
2022/03/31 09:22:13;;;;;;;7.40;4.07;;;4.90;99.90;;;;;;5103046;27;20220;-73
2022/03/31 09:25:02;;;;;;;6.87;4.20;;;4.80;99.90;;;;;;5112131;27;20244;-71
2022/03/31 09:27:51;;;;;;;9.53;4.63;;;4.90;99.90;;;;;;5102499;27;20577;-72
2022/03/31 09:30:48;;;;;;;6.93;4.20;;;4.90;99.90;;;;;;5117349;27;20634;-72
2022/03/31 09:33:40;;;;;;;9.43;4.40;;;5.10;99.90;;;;;;5115626;27;20585;-73
2022/03/31 09:36:30;;;;;;;7.33;4.20;;;5.10;99.90;;;;;;5108312;27;20517;-72
2022/03/31 09:39:20;;;;;;;8.73;3.47;;;5.10;99.90;;;;;;5113464;27;20362;-71
2022/03/31 09:42:13;;;;;;;9.37;4.03;;;5.10;99.90;;;;;;5118558;27;20233;-71
2022/03/31 09:45:03;;;;;;;6.77;4.27;;;5.10;99.90;;;;;;5121090;27;20235;-72
2022/03/31 09:47:52;;;;;;;5.40;3.40;;;5.20;99.90;;;;;;5102619;27;20238;-72
2022/03/31 09:50:41;;;;;;;7.47;4.27;;;5.40;99.90;;;;;;5114312;27;20220;-71
2022/03/31 09:53:33;;;;;;;8.07;4.43;;;5.10;99.90;;;;;;5115396;27;20230;-71
2022/03/31 09:56:24;;;;;;;5.77;3.77;;;5.50;99.90;;;;;;5115594;27;20306;-72
2022/03/31 09:59:14;;;;;;;6.13;3.57;;;5.40;99.90;;;;;;5104065;27;20260;-73
2022/03/31 10:02:13;;;;;;;6.37;4.00;;;5.50;99.90;;;;;;5103386;27;20210;-72
2022/03/31 10:05:03;;;;;;;7.33;4.23;;;5.50;99.90;;;;;;5113363;27;20241;-71
2022/03/31 10:07:52;;;;;;;7.50;4.13;;;5.50;99.90;;;;;;5103110;27;20219;-72
2022/03/31 10:10:43;;;;;;;6.87;3.70;;;5.80;99.90;;;;;;5113359;27;20225;-72
2022/03/31 10:13:42;;;;;;;6.27;3.60;;;5.80;99.90;;;;;;5114692;27;20309;-71
2022/03/31 10:16:38;;;;;;;7.10;3.80;;;5.60;99.90;;;;;;5105456;27;20226;-71
2022/03/31 10:19:29;;;;;;;4.93;3.60;;;5.60;99.90;;;;;;5115375;27;20307;-70
2022/03/31 10:25:36;;;;;;;6.77;3.80;;;5.80;99.90;;;;;;5126756;27;20245;-71
2022/03/31 10:28:26;;;;;;;6.40;3.47;;;5.90;99.90;;;;;;5111091;27;20222;-71
2022/03/31 10:31:16;;;;;;;5.90;3.43;;;5.70;99.90;;;;;;5098571;27;20225;-71
2022/03/31 10:34:06;;;;;;;7.43;3.53;;;5.70;99.90;;;;;;5115827;27;20224;-74
2022/03/31 10:36:55;;;;;;;5.50;4.00;;;5.60;99.90;;;;;;5115470;27;20265;-72
2022/03/31 10:39:55;;;;;;;5.93;3.10;;;5.70;99.90;;;;;;5100148;27;20215;-72
2022/03/31 10:42:55;;;;;;;4.50;3.57;;;5.40;99.90;;;;;;5113198;27;20223;-72
2022/03/31 10:45:46;;;;;;;6.03;3.37;;;5.50;99.90;;;;;;5116947;27;20226;-73
2022/03/31 10:48:37;;;;;;;4.87;3.80;;;5.60;99.90;;;;;;5103579;27;20297;-73
2022/03/31 10:51:33;;;;;;;6.30;3.73;;;5.80;99.90;;;;;;5122309;27;20225;-74
2022/03/31 10:54:27;;;;;;;6.90;4.03;;;6.00;99.90;;;;;;5125003;27;20338;-74
2022/03/31 10:57:18;;;;;;;7.73;3.70;;;5.90;99.90;;;;;;5107522;27;20746;-72
2022/03/31 11:00:08;;;;;;;6.47;3.70;;;6.20;99.90;;;;;;5112587;27;20300;-74
2022/03/31 11:02:58;;;;;;;5.93;3.67;;;6.00;99.90;;;;;;5119646;27;20336;-73
2022/03/31 11:06:07;;;;;;;7.33;3.77;;;5.90;99.90;;;;;;5104782;27;20226;-73
2022/03/31 11:08:57;;;;;;;7.77;4.07;;;6.00;99.90;;;;;;5133277;27;20918;-73
2022/03/31 11:11:51;;;;;;;6.83;3.80;;;6.10;99.90;;;;;;5101956;27;20246;-73
2022/03/31 11:14:39;;;;;;;4.77;3.40;;;6.30;99.90;;;;;;5105139;27;20581;-73
2022/03/31 11:17:29;;;;;;;5.80;3.90;;;6.40;99.90;;;;;;5124436;27;20229;-73
2022/03/31 11:20:21;;;;;;;6.13;3.53;;;6.30;99.90;;;;;;5110764;27;20221;-72
2022/03/31 11:23:10;;;;;;;7.63;4.20;;;6.40;99.90;;;;;;5099911;27;20745;-71
2022/03/31 11:26:02;;;;;;;5.47;3.70;;;6.40;99.90;;;;;;5120693;27;20755;-72
2022/03/31 11:28:51;;;;;;;5.70;3.93;;;6.50;99.90;;;;;;5114206;27;20218;-72
2022/03/31 11:31:44;;;;;;;7.83;3.80;;;6.80;99.90;;;;;;5119055;27;20226;-72
2022/03/31 11:34:34;;;;;;;4.13;2.77;;;6.90;99.90;;;;;;5104890;27;20221;-73
2022/03/31 11:37:24;;;;;;;5.93;3.07;;;6.60;99.90;;;;;;5120860;27;20218;-73
2022/03/31 11:40:18;;;;;;;5.30;3.70;;;6.40;99.90;;;;;;5105388;27;20214;-72
2022/03/31 11:43:09;;;;;;;8.70;4.00;;;6.50;99.90;;;;;;5107925;27;20688;-72
2022/03/31 11:45:58;;;;;;;7.13;3.87;;;6.50;99.90;;;;;;5122366;27;20276;-72
2022/03/31 11:48:49;;;;;;;5.90;3.73;;;6.80;99.90;;;;;;5132747;27;20222;-74
2022/03/31 11:51:38;;;;;;;6.07;3.87;;;6.60;99.90;;;;;;5119910;27;20226;-72
2022/03/31 11:54:32;;;;;;;6.10;3.90;;;6.40;99.90;;;;;;5120615;27;20230;-72
2022/03/31 11:57:23;;;;;;;5.20;3.63;;;6.60;99.90;;;;;;5106607;27;20286;-73
2022/03/31 12:00:13;;;;;;;5.30;3.50;;;6.60;99.90;;;;;;5117936;27;20229;-71
2022/03/31 12:03:03;;;;;;;4.30;3.03;;;6.80;99.90;;;;;;5106789;27;20241;-72
2022/03/31 12:05:57;;;;;;;6.60;3.77;;;6.80;99.90;;;;;;5105627;27;20287;-70
2022/03/31 12:08:46;;;;;;;8.13;3.73;;;7.20;98.30;;;;;;5119370;27;20345;-67
2022/03/31 12:11:37;;;;;;;7.97;3.53;;;7.30;95.90;;;;;;5114962;27;20537;-67
2022/03/31 12:14:27;;;;;;;5.30;3.00;;;7.40;95.70;;;;;;5107361;27;20648;-67
2022/03/31 12:17:20;;;;;;;4.70;2.87;;;7.20;94.40;;;;;;5121053;27;20298;-66
2022/03/31 12:20:14;;;;;;;4.73;2.90;;;7.20;93.30;;;;;;5119547;27;20221;-68
2022/03/31 12:23:04;;;;;;;6.87;3.33;;;7.00;93.30;;;;;;5115800;27;21005;-67
2022/03/31 12:25:54;;;;;;;5.23;3.43;;;7.00;93.70;;;;;;5113285;27;20249;-68
2022/03/31 12:28:45;;;;;;;5.70;3.57;;;7.30;93.10;;;;;;5102905;27;20214;-68
2022/03/31 12:31:37;;;;;;;5.53;3.47;;;7.30;92.30;;;;;;5115856;27;20233;-69
2022/03/31 12:34:25;;;;;;;6.07;3.47;;;7.40;92.30;;;;;;5107171;27;20308;-71
2022/03/31 12:37:14;;;;;;;5.07;3.50;;;7.50;91.80;;;;;;5104257;27;20242;-68
2022/03/31 12:40:06;;;;;;;4.47;2.87;;;7.60;90.60;;;;;;5103714;27;20541;-69
2022/03/31 12:43:00;;;;;;;5.90;3.13;;;7.40;90.00;;;;;;5116697;27;20234;-69
2022/03/31 12:45:50;;;;;;;6.53;3.47;;;7.30;90.30;;;;;;5115311;27;20219;-68
2022/03/31 12:48:39;;;;;;;5.73;3.17;;;7.60;90.60;;;;;;5117188;27;20229;-70
2022/03/31 12:51:28;;;;;;;5.17;3.20;;;7.80;89.50;;;;;;5117148;27;20226;-68
2022/03/31 12:54:25;;;;;;;4.43;3.37;;;7.30;86.70;;;;;;5111612;27;20693;-68
2022/03/31 12:57:17;;;;;;;5.70;3.33;;;7.40;86.90;;;;;;5112968;27;20300;-70
2022/03/31 13:00:12;;;;;;;5.23;3.20;;;7.50;86.40;;;;;;5118470;27;20227;-67
2022/03/31 13:03:04;;;;;;;3.70;2.73;;;7.50;85.80;;;;;;5101589;27;20229;-69
2022/03/31 13:05:53;;;;;;;4.30;2.30;;;7.40;84.10;;;;;;5107307;27;20300;-70
2022/03/31 13:08:41;;;;;;;3.63;2.50;;;7.30;81.90;;;;;;5094115;27;20231;-68
2022/03/31 13:11:30;;;;;;;5.47;3.10;;;7.20;82.80;;;;;;5086485;27;20768;-69
2022/03/31 13:14:21;;;;;;;4.67;3.07;;;7.40;83.90;;;;;;5094840;27;20226;-70
2022/03/31 13:17:14;;;;;;;5.20;3.20;;;7.30;86.00;;;;;;5095656;27;20222;-68
2022/03/31 13:20:04;;;;;;;7.27;3.50;;;7.10;85.60;;;;;;5092858;27;20225;-70
2022/03/31 13:22:54;;;;;;;5.90;3.37;;;7.30;85.10;;;;;;5095220;27;20332;-68
2022/03/31 13:25:43;;;;;;;4.10;3.07;;;7.40;83.40;;;;;;5085780;28;20227;-68
2022/03/31 13:28:32;;;;;;;8.03;3.30;;;7.40;82.50;;;;;;5097961;27;20367;-69
2022/03/31 13:31:21;;;;;;;7.73;3.47;;;7.40;83.40;;;;;;5093987;27;20652;-69
2022/03/31 13:34:10;;;;;;;5.07;3.50;;;7.50;83.90;;;;;;5102489;27;20830;-67
2022/03/31 13:37:05;;;;;;;4.80;3.10;;;7.60;83.30;;;;;;5096226;28;20231;-69
2022/03/31 13:39:54;;;;;;;8.73;3.27;;;7.50;82.60;;;;;;5094072;27;20230;-68
2022/03/31 13:42:43;;;;;;;7.93;3.53;;;7.60;82.40;;;;;;5091470;27;20314;-68
2022/03/31 13:45:33;;;;;;;6.93;3.00;;;7.70;81.80;;;;;;5086415;27;20218;-68
2022/03/31 13:48:25;;;;;;;3.93;2.80;;;7.60;79.90;;;;;;5084658;27;20570;-69
2022/03/31 13:51:14;;;;;;;6.30;3.53;;;7.50;80.00;;;;;;5096812;27;20240;-68
2022/03/31 13:54:09;;;;;;;4.63;3.03;;;7.50;79.20;;;;;;5079291;28;20222;-68
2022/03/31 13:57:02;;;;;;;5.70;3.40;;;7.50;79.80;;;;;;5095191;27;20219;-68
2022/03/31 14:03:01;;;;;;;6.13;3.27;;;7.70;78.50;;;;;;5090205;27;20958;-68
2022/03/31 14:05:54;;;;;;;4.50;3.43;;;7.70;78.10;;;;;;5092206;28;20231;-68
2022/03/31 14:08:43;;;;;;;5.30;2.97;;;7.80;77.90;;;;;;5089786;28;20219;-71
2022/03/31 14:11:34;;;;;;;4.77;3.17;;;7.90;78.70;;;;;;5077885;28;20223;-69
2022/03/31 14:14:25;;;;;;;5.73;2.93;;;7.80;77.10;;;;;;5085728;27;20445;-68
2022/03/31 14:17:14;;;;;;;5.60;3.23;;;7.90;76.90;;;;;;5092543;28;20223;-67
2022/03/31 14:20:04;;;;;;;8.30;3.50;;;7.80;76.50;;;;;;5082526;28;20676;-70
2022/03/31 14:22:53;;;;;;;5.03;3.00;;;7.80;76.70;;;;;;5084140;28;20534;-68
2022/03/31 14:25:41;;;;;;;3.73;2.87;;;7.90;76.70;;;;;;5076619;28;20233;-68
2022/03/31 14:28:35;;;;;;;7.57;2.60;;;7.80;75.00;;;;;;5086559;28;20235;-69
2022/03/31 14:31:26;;;;;;;7.97;2.90;;;7.70;74.70;;;;;;5092173;28;20230;-69
2022/03/31 14:34:23;;;;;;;4.23;2.13;;;7.70;74.90;;;;;;5091511;28;20703;-69
2022/03/31 14:37:11;;;;;;;3.60;2.90;;;7.80;74.20;;;;;;5095112;28;20239;-69
2022/03/31 14:40:00;;;;;;;5.40;3.23;;;7.80;74.40;;;;;;5098543;28;20234;-69
2022/03/31 14:42:49;;;;;;;6.07;3.07;;;7.80;73.90;;;;;;5082071;28;20745;-69
2022/03/31 14:45:39;;;;;;;3.90;2.20;;;7.80;73.90;;;;;;5091303;28;20223;-67
2022/03/31 14:48:28;;;;;;;5.07;2.63;;;7.90;73.00;;;;;;5094406;28;20712;-69
2022/03/31 14:51:16;;;;;;;4.60;2.90;;;7.70;72.50;;;;;;5079958;28;20233;-68
2022/03/31 14:54:07;;;;;;;4.30;2.50;;;7.70;72.20;;;;;;5091769;28;20618;-68
2022/03/31 14:56:56;;;;;;;4.63;2.53;;;7.80;71.60;;;;;;5094293;28;20250;-68
2022/03/31 14:59:45;;;;;;;6.43;2.73;;;7.70;71.60;;;;;;5084726;28;20305;-68
2022/03/31 15:02:35;;;;;;;5.63;2.40;;;7.70;71.50;;;;;;5094727;28;20227;-68